createdAt,value
2022-10-23T00:00:41.835Z,96476.44
2022-10-23T00:03:09.455Z,96473.22
2022-10-23T00:05:41.303Z,96484.97
2022-10-23T00:08:08.958Z,96468.38
2022-10-23T00:10:36.499Z,96474.78
2022-10-23T00:13:04.087Z,96462.88
2022-10-23T00:15:32.449Z,96468.63
2022-10-23T00:18:01.368Z,96474.28
2022-10-23T00:20:29.154Z,96476.06
2022-10-23T00:22:56.714Z,96471.91
2022-10-23T00:25:24.246Z,96472.41
2022-10-23T00:27:52.000Z,96480.91
2022-10-23T00:30:19.757Z,96481.69
2022-10-23T00:32:47.279Z,96475.00
2022-10-23T00:35:16.294Z,96474.63
2022-10-23T00:37:44.069Z,96480.97
2022-10-23T00:40:13.020Z,96475.28
2022-10-23T00:42:40.845Z,96475.06
2022-10-23T00:45:17.217Z,96468.25
2022-10-23T00:47:44.889Z,96476.09
2022-10-23T00:50:12.865Z,96478.22
2022-10-23T00:52:47.921Z,96481.75
2022-10-23T00:55:16.938Z,96480.84
2022-10-23T00:57:47.461Z,96485.78
2022-10-23T01:00:18.460Z,96490.00
2022-10-23T01:02:46.670Z,96483.53
2022-10-23T01:05:14.479Z,96481.56
2022-10-23T01:07:53.701Z,96478.38
2022-10-23T01:10:28.049Z,96477.75
2022-10-23T01:13:04.565Z,96477.00
2022-10-23T01:15:38.280Z,96471.59
2022-10-23T01:18:12.972Z,96468.38
2022-10-23T01:20:44.165Z,96463.22
2022-10-23T01:23:43.787Z,96457.59
2022-10-23T01:26:40.196Z,96453.56
2022-10-23T01:29:14.972Z,96454.66
2022-10-23T01:31:47.525Z,96464.59
2022-10-23T01:34:19.436Z,96457.53
2022-10-23T01:36:49.649Z,96458.28
2022-10-23T01:39:22.730Z,96447.53
2022-10-23T01:41:54.271Z,96440.75
2022-10-23T01:44:29.067Z,96439.53
2022-10-23T01:46:58.683Z,96440.56
2022-10-23T01:49:26.274Z,96434.03
2022-10-23T01:51:55.866Z,96430.63
2022-10-23T01:54:26.233Z,96431.28
2022-10-23T01:56:54.426Z,96433.38
2022-10-23T01:59:28.020Z,96444.59
2022-10-23T02:01:57.982Z,96442.41
2022-10-23T02:04:30.680Z,96445.81
2022-10-23T02:06:58.469Z,96440.09
2022-10-23T02:09:26.487Z,96439.00
2022-10-23T02:11:59.514Z,96442.72
2022-10-23T02:14:38.290Z,96449.56
2022-10-23T02:17:15.880Z,96439.47
2022-10-23T02:19:48.671Z,96433.38
2022-10-23T02:22:22.527Z,96425.50
2022-10-23T02:24:54.041Z,96428.63
2022-10-23T02:27:24.832Z,96425.44
2022-10-23T02:29:57.820Z,96429.19
2022-10-23T02:32:28.566Z,96423.34
2022-10-23T02:34:56.247Z,96427.00
2022-10-23T02:37:25.391Z,96416.66
2022-10-23T02:39:54.156Z,96418.63
2022-10-23T02:42:27.831Z,96421.63
2022-10-23T02:45:06.213Z,96423.28
2022-10-23T02:47:47.589Z,96417.50
2022-10-23T02:50:22.756Z,96421.03
2022-10-23T02:52:57.629Z,96424.72
2022-10-23T02:55:35.565Z,96416.66
2022-10-23T02:58:10.378Z,96403.38
2022-10-23T03:00:43.628Z,96398.66
2022-10-23T03:03:14.521Z,96399.13
2022-10-23T03:05:44.767Z,96398.03
2022-10-23T03:08:13.523Z,96399.25
2022-10-23T03:10:42.059Z,96397.72
2022-10-23T03:13:11.105Z,96393.66
2022-10-23T03:15:40.005Z,96393.00
2022-10-23T03:18:07.572Z,96391.97
2022-10-23T03:20:35.091Z,96398.06
2022-10-23T03:23:02.711Z,96400.06
2022-10-23T03:25:30.268Z,96411.19
2022-10-23T03:27:57.785Z,96411.13
2022-10-23T03:30:25.572Z,96413.28
2022-10-23T03:32:54.459Z,96408.94
2022-10-23T03:35:21.968Z,96408.25
2022-10-23T03:37:49.518Z,96404.44
2022-10-23T03:40:17.157Z,96408.72
2022-10-23T03:42:44.672Z,96411.91
2022-10-23T03:45:12.208Z,96412.53
2022-10-23T03:47:41.442Z,96409.53
2022-10-23T03:50:13.423Z,96401.47
2022-10-23T03:52:41.952Z,96410.56
2022-10-23T03:55:10.335Z,96403.50
2022-10-23T03:57:38.125Z,96399.72
2022-10-23T04:00:07.357Z,96386.56
2022-10-23T04:02:35.122Z,96393.28
2022-10-23T04:05:02.779Z,96396.25
2022-10-23T04:07:31.685Z,96399.84
2022-10-23T04:09:59.179Z,96393.06
2022-10-23T04:12:26.715Z,96386.56
2022-10-23T04:14:54.239Z,96387.88
2022-10-23T04:17:21.805Z,96397.22
2022-10-23T04:19:49.385Z,96397.78
2022-10-23T04:22:16.908Z,96392.69
2022-10-23T04:24:47.939Z,96391.19
2022-10-23T04:27:15.763Z,96407.53
2022-10-23T04:29:43.279Z,96403.31
2022-10-23T04:32:10.796Z,96405.94
2022-10-23T04:34:38.342Z,96409.94
2022-10-23T04:37:05.923Z,96406.28
2022-10-23T04:39:33.464Z,96407.63
2022-10-23T04:42:02.367Z,96400.44
2022-10-23T04:44:29.863Z,96397.97
2022-10-23T04:46:57.402Z,96401.47
2022-10-23T04:49:25.112Z,96407.53
2022-10-23T04:51:52.634Z,96413.53
2022-10-23T04:54:20.218Z,96409.84
2022-10-23T04:56:47.724Z,96409.19
2022-10-23T04:59:16.610Z,96403.84
2022-10-23T05:01:44.438Z,96402.25
2022-10-23T05:04:13.598Z,96398.56
2022-10-23T05:06:41.111Z,96398.44
2022-10-23T05:09:08.624Z,96390.56
2022-10-23T05:11:36.152Z,96387.81
2022-10-23T05:14:03.674Z,96387.38
2022-10-23T05:16:41.460Z,96383.91
2022-10-23T05:19:11.648Z,96384.69
2022-10-23T05:21:41.311Z,96387.03
2022-10-23T05:24:09.397Z,96382.50
2022-10-23T05:26:36.891Z,96384.53
2022-10-23T05:29:04.561Z,96380.75
2022-10-23T05:31:33.820Z,96382.06
2022-10-23T05:34:02.802Z,96378.31
2022-10-23T05:36:30.408Z,96385.59
2022-10-23T05:38:58.880Z,96386.00
2022-10-23T05:41:26.428Z,96391.38
2022-10-23T05:43:54.150Z,96394.88
2022-10-23T05:46:23.058Z,96398.13
2022-10-23T05:48:51.199Z,96396.38
2022-10-23T05:51:22.865Z,96404.81
2022-10-23T05:53:50.779Z,96397.66
2022-10-23T05:56:18.615Z,96398.94
2022-10-23T05:58:46.628Z,96398.47
2022-10-23T06:01:15.574Z,96394.69
2022-10-23T06:03:43.137Z,96394.03
2022-10-23T06:06:10.712Z,96392.78
2022-10-23T06:08:39.555Z,96383.19
2022-10-23T06:11:09.439Z,96388.28
2022-10-23T06:13:37.156Z,96384.28
2022-10-23T06:16:11.725Z,96387.53
2022-10-23T06:18:39.239Z,96386.41
2022-10-23T06:21:07.487Z,96395.63
2022-10-23T06:23:36.595Z,96392.66
2022-10-23T06:26:07.105Z,96396.28
2022-10-23T06:28:35.014Z,96396.25
2022-10-23T06:31:05.752Z,96400.03
2022-10-23T06:33:33.312Z,96401.97
2022-10-23T06:36:00.839Z,96406.06
2022-10-23T06:38:28.367Z,96404.50
2022-10-23T06:40:56.849Z,96404.22
2022-10-23T06:43:25.816Z,96402.25
2022-10-23T06:45:53.311Z,96404.81
2022-10-23T06:48:20.887Z,96400.22
2022-10-23T06:50:48.465Z,96398.00
2022-10-23T06:53:15.988Z,96389.94
2022-10-23T06:55:43.510Z,96391.00
2022-10-23T06:58:11.378Z,96391.94
2022-10-23T07:00:40.804Z,96393.44
2022-10-23T07:03:09.029Z,96399.34
2022-10-23T07:05:37.229Z,96401.84
2022-10-23T07:08:05.760Z,96402.41
2022-10-23T07:10:33.452Z,96407.16
2022-10-23T07:13:01.252Z,96400.53
2022-10-23T07:15:29.114Z,96395.22
2022-10-23T07:17:57.964Z,96401.59
2022-10-23T07:20:25.493Z,96402.56
2022-10-23T07:22:54.359Z,96408.53
2022-10-23T07:25:22.105Z,96407.16
2022-10-23T07:27:50.067Z,96411.84
2022-10-23T07:30:17.974Z,96413.97
2022-10-23T07:32:45.941Z,96404.31
2022-10-23T07:37:48.578Z,96396.38
2022-10-23T07:40:17.205Z,96387.59
2022-10-23T07:42:44.737Z,96392.06
2022-10-23T07:45:12.655Z,96390.06
2022-10-23T07:47:40.404Z,96393.88
2022-10-23T07:50:09.478Z,96385.56
2022-10-23T07:52:38.351Z,96387.00
2022-10-23T07:55:06.559Z,96383.31
2022-10-23T07:57:34.089Z,96385.03
2022-10-23T08:00:01.609Z,96379.22
2022-10-23T08:02:29.161Z,96375.97
2022-10-23T08:04:56.655Z,96375.09
2022-10-23T08:07:24.283Z,96380.94
2022-10-23T08:09:53.137Z,96378.94
2022-10-23T08:12:20.639Z,96376.53
2022-10-23T08:14:48.135Z,96369.28
2022-10-23T08:17:15.710Z,96361.88
2022-10-23T08:19:46.295Z,96360.31
2022-10-23T08:22:14.383Z,96360.03
2022-10-23T08:24:42.098Z,96371.13
2022-10-23T08:27:11.025Z,96370.69
2022-10-23T08:29:38.547Z,96381.16
2022-10-23T08:32:06.395Z,96384.16
2022-10-23T08:34:33.928Z,96376.38
2022-10-23T08:37:01.431Z,96375.13
2022-10-23T08:39:28.946Z,96368.69
2022-10-23T08:41:56.502Z,96384.06
2022-10-23T08:44:30.852Z,96371.63
2022-10-23T08:47:05.984Z,96381.47
2022-10-23T08:49:45.315Z,96371.16
2022-10-23T08:52:20.159Z,96382.34
2022-10-23T08:54:58.037Z,96385.44
2022-10-23T08:57:33.136Z,96375.75
2022-10-23T09:00:07.144Z,96367.38
2022-10-23T09:02:39.355Z,96365.94
2022-10-23T09:05:14.738Z,96362.91
2022-10-23T09:07:55.653Z,96363.94
2022-10-23T09:10:36.882Z,96360.53
2022-10-23T09:13:31.374Z,96358.75
2022-10-23T09:16:11.372Z,96357.31
2022-10-23T09:18:42.138Z,96350.13
2022-10-23T09:21:10.831Z,96350.66
2022-10-23T09:23:38.868Z,96353.81
2022-10-23T09:26:13.769Z,96353.44
2022-10-23T09:28:47.044Z,96349.38
2022-10-23T09:31:17.672Z,96354.47
2022-10-23T09:33:55.846Z,96359.38
2022-10-23T09:36:25.877Z,96354.47
2022-10-23T09:38:55.413Z,96353.63
2022-10-23T09:41:25.561Z,96349.56
2022-10-23T09:44:04.068Z,96357.53
2022-10-23T09:46:40.386Z,96360.44
2022-10-23T09:49:16.517Z,96353.75
2022-10-23T09:51:54.037Z,96348.53
2022-10-23T09:54:24.441Z,96355.03
2022-10-23T09:56:55.048Z,96352.09
2022-10-23T09:59:27.595Z,96346.19
2022-10-23T10:01:58.446Z,96348.31
2022-10-23T10:04:37.299Z,96352.97
2022-10-23T10:07:06.915Z,96347.06
2022-10-23T10:09:34.955Z,96342.13
2022-10-23T10:12:37.517Z,96348.13
2022-10-23T10:15:18.027Z,96342.44
2022-10-23T10:17:57.405Z,96345.88
2022-10-23T10:20:47.029Z,96332.50
2022-10-23T10:23:24.251Z,96334.09
2022-10-23T10:25:59.469Z,96316.78
2022-10-23T10:28:39.457Z,96317.53
2022-10-23T10:31:16.378Z,96313.22
2022-10-23T10:33:54.953Z,96310.78
2022-10-23T10:36:40.030Z,96315.84
2022-10-23T10:39:16.940Z,96297.59
2022-10-23T10:41:54.848Z,96296.06
2022-10-23T10:44:40.187Z,96293.44
2022-10-23T10:47:18.497Z,96299.25
2022-10-23T10:50:00.673Z,96303.59
2022-10-23T10:52:39.093Z,96296.00
2022-10-23T10:55:15.932Z,96282.56
2022-10-23T10:57:46.622Z,96282.06
2022-10-23T11:00:17.287Z,96273.63
2022-10-23T11:02:48.066Z,96271.34
2022-10-23T11:05:31.300Z,96254.16
2022-10-23T11:08:04.832Z,96275.00
2022-10-23T11:10:34.640Z,96260.84
2022-10-23T11:13:02.229Z,96272.47
2022-10-23T11:15:40.111Z,96263.88
2022-10-23T11:18:16.493Z,96258.75
2022-10-23T11:21:00.179Z,96249.81
2022-10-23T11:23:52.511Z,96237.78
2022-10-23T11:26:32.187Z,96245.38
2022-10-23T11:29:21.382Z,96241.44
2022-10-23T11:31:58.505Z,96254.44
2022-10-23T11:34:54.632Z,96244.31
2022-10-23T11:37:24.536Z,96242.03
2022-10-23T11:40:02.372Z,96237.00
2022-10-23T11:42:34.733Z,96223.94
2022-10-23T11:45:02.355Z,96229.31
2022-10-23T11:47:39.705Z,96220.47
2022-10-23T11:50:26.685Z,96201.41
2022-10-23T11:53:14.695Z,96191.63
2022-10-23T11:55:58.395Z,96180.66
2022-10-23T11:58:32.154Z,96184.31
2022-10-23T12:01:05.030Z,96176.38
2022-10-23T12:03:43.376Z,96176.38
2022-10-23T12:06:22.386Z,96165.06
2022-10-23T12:08:55.810Z,96163.28
2022-10-23T12:11:43.033Z,96160.84
2022-10-23T12:14:28.240Z,96164.69
2022-10-23T12:16:55.860Z,96164.53
2022-10-23T12:19:25.916Z,96154.19
2022-10-23T12:21:55.400Z,96156.28
2022-10-23T12:24:42.460Z,96143.56
2022-10-23T12:27:26.224Z,96140.16
2022-10-23T12:30:04.788Z,96151.50
2022-10-23T12:32:46.718Z,96158.09
2022-10-23T12:35:25.800Z,96153.94
2022-10-23T12:38:05.155Z,96152.75
2022-10-23T12:40:34.032Z,96149.81
2022-10-23T12:43:02.649Z,96135.97
2022-10-23T12:45:33.196Z,96138.41
2022-10-23T12:48:00.755Z,96135.97
2022-10-23T12:50:30.003Z,96138.97
2022-10-23T12:53:00.907Z,96134.47
2022-10-23T12:55:35.174Z,96128.00
2022-10-23T12:58:04.931Z,96119.06
2022-10-23T13:00:32.461Z,96109.91
2022-10-23T13:03:00.950Z,96092.31
2022-10-23T13:05:29.863Z,96088.09
2022-10-23T13:08:00.291Z,96089.72
2022-10-23T13:10:27.937Z,96086.66
2022-10-23T13:12:58.246Z,96082.22
2022-10-23T13:15:39.036Z,96094.34
2022-10-23T13:18:08.044Z,96097.34
2022-10-23T13:20:38.194Z,96082.19
2022-10-23T13:23:18.182Z,96084.00
2022-10-23T13:25:55.499Z,96085.81
2022-10-23T13:28:25.651Z,96081.50
2022-10-23T13:31:07.216Z,96089.41
2022-10-23T13:33:37.357Z,96087.13
2022-10-23T13:36:07.632Z,96081.19
2022-10-23T13:38:36.851Z,96075.31
2022-10-23T13:41:06.897Z,96080.69
2022-10-23T13:43:35.068Z,96080.31
2022-10-23T13:46:04.011Z,96072.47
2022-10-23T13:48:31.627Z,96076.06
2022-10-23T13:51:07.446Z,96077.78
2022-10-23T13:53:34.968Z,96066.78
2022-10-23T13:56:02.595Z,96074.56
2022-10-23T13:58:30.124Z,96062.78
2022-10-23T14:00:59.226Z,96069.81
2022-10-23T14:03:28.137Z,96069.41
2022-10-23T14:05:55.649Z,96071.66
2022-10-23T14:08:23.390Z,96068.31
2022-10-23T14:10:51.014Z,96072.94
2022-10-23T14:13:18.517Z,96073.03
2022-10-23T14:15:53.416Z,96070.41
2022-10-23T14:18:20.949Z,96070.97
2022-10-23T14:20:49.970Z,96075.81
2022-10-23T14:23:17.465Z,96068.22
2022-10-23T14:25:44.991Z,96070.78
2022-10-23T14:28:12.504Z,96071.91
2022-10-23T14:30:40.003Z,96073.84
2022-10-23T14:33:07.503Z,96071.47
2022-10-23T14:35:35.384Z,96069.19
2022-10-23T14:38:04.244Z,96068.22
2022-10-23T14:40:31.743Z,96064.34
2022-10-23T14:42:59.227Z,96059.72
2022-10-23T14:45:26.788Z,96059.16
2022-10-23T14:47:54.292Z,96050.41
2022-10-23T14:50:21.847Z,96046.34
2022-10-23T14:52:49.377Z,96041.31
2022-10-23T14:55:18.468Z,96047.22
2022-10-23T14:57:46.305Z,96043.78
2022-10-23T15:00:15.004Z,96038.75
2022-10-23T15:02:42.751Z,96039.00
2022-10-23T15:05:10.439Z,96042.81
2022-10-23T15:07:37.987Z,96043.28
2022-10-23T15:10:06.143Z,96034.88
2022-10-23T15:12:35.639Z,96036.25
2022-10-23T15:15:03.344Z,96045.28
2022-10-23T15:17:31.972Z,96048.94
2022-10-23T15:19:59.459Z,96031.06
2022-10-23T15:22:27.293Z,96025.38
2022-10-23T15:24:56.697Z,96025.44
2022-10-23T15:27:24.340Z,96025.38
2022-10-23T15:29:53.269Z,96020.88
2022-10-23T15:32:20.760Z,96020.13
2022-10-23T15:34:49.648Z,96026.28
2022-10-23T15:37:17.368Z,96017.63
2022-10-23T15:39:45.460Z,96022.19
2022-10-23T15:42:12.957Z,96013.50
2022-10-23T15:44:41.488Z,96020.75
2022-10-23T15:47:10.359Z,96022.19
2022-10-23T15:49:38.064Z,96017.50
2022-10-23T15:52:05.739Z,96017.75
2022-10-23T15:54:33.311Z,96020.06
2022-10-23T15:57:01.816Z,96009.91
2022-10-23T15:59:31.485Z,96009.69
2022-10-23T16:01:59.189Z,96016.25
2022-10-23T16:04:29.369Z,96020.06
2022-10-23T16:06:56.880Z,96027.09
2022-10-23T16:09:24.444Z,96016.34
2022-10-23T16:11:51.967Z,96002.78
2022-10-23T16:14:19.535Z,96003.59
2022-10-23T16:16:47.182Z,96006.03
2022-10-23T16:19:15.020Z,96000.66
2022-10-23T16:21:43.918Z,96008.09
2022-10-23T16:24:11.808Z,95996.16
2022-10-23T16:26:39.454Z,95997.97
2022-10-23T16:29:08.545Z,96000.06
2022-10-23T16:31:36.128Z,96000.69
2022-10-23T16:34:05.668Z,96012.22
2022-10-23T16:36:33.973Z,96012.44
2022-10-23T16:39:04.579Z,96014.06
2022-10-23T16:41:32.158Z,96009.34
2022-10-23T16:43:59.706Z,96012.00
2022-10-23T16:46:27.613Z,96020.88
2022-10-23T16:48:55.150Z,96011.00
2022-10-23T16:51:24.865Z,96011.59
2022-10-23T16:53:53.187Z,96008.31
2022-10-23T16:56:24.198Z,96006.88
2022-10-23T16:58:51.794Z,96009.31
2022-10-23T17:01:21.407Z,96005.44
2022-10-23T17:03:50.640Z,96007.69
2022-10-23T17:06:21.085Z,96009.94
2022-10-23T17:08:49.352Z,96010.59
2022-10-23T17:11:19.319Z,96023.78
2022-10-23T17:13:52.519Z,96020.09
2022-10-23T17:16:24.962Z,96011.66
2022-10-23T17:18:53.173Z,96024.81
2022-10-23T17:21:34.153Z,96019.16
2022-10-23T17:26:34.831Z,96013.44
2022-10-23T17:29:06.001Z,96009.72
2022-10-23T17:31:36.828Z,96009.69
2022-10-23T17:34:07.483Z,95999.56
2022-10-23T17:36:38.631Z,95995.69
2022-10-23T17:39:06.894Z,95993.63
2022-10-23T17:41:35.824Z,95981.44
2022-10-23T17:44:05.562Z,95977.91
2022-10-23T17:46:33.503Z,95984.16
2022-10-23T17:51:37.144Z,95995.00
2022-10-23T17:54:07.074Z,95994.41
2022-10-23T17:56:36.452Z,95999.75
2022-10-23T17:59:07.379Z,96006.31
2022-10-23T18:01:35.470Z,95997.06
2022-10-23T18:04:05.579Z,96004.06
2022-10-23T18:06:35.296Z,95993.97
2022-10-23T18:09:04.624Z,96009.16
2022-10-23T18:11:34.098Z,96001.78
2022-10-23T18:14:02.340Z,96006.31
2022-10-23T18:16:31.242Z,96006.53
2022-10-23T18:19:00.813Z,96000.22
2022-10-23T18:21:28.800Z,95995.66
2022-10-23T18:23:56.813Z,96001.63
2022-10-23T18:26:26.281Z,96008.00
2022-10-23T18:28:56.845Z,96019.94
2022-10-23T18:31:26.962Z,96024.31
2022-10-23T18:33:58.935Z,96017.69
2022-10-23T18:36:28.316Z,96024.53
2022-10-23T18:41:33.214Z,96031.69
2022-10-23T18:44:00.913Z,96025.06
2022-10-23T18:46:28.627Z,96014.13
2022-10-23T18:48:57.532Z,96016.63
2022-10-23T18:51:29.033Z,96015.66
2022-10-23T18:53:56.652Z,96015.41
2022-10-23T18:56:26.856Z,95979.97
2022-10-23T18:58:56.293Z,95973.19
2022-10-23T19:01:26.849Z,95956.94
2022-10-23T19:06:29.411Z,95957.31
2022-10-23T19:08:57.385Z,95950.94
2022-10-23T19:11:26.849Z,95950.31
2022-10-23T19:13:54.706Z,95948.84
2022-10-23T19:16:27.158Z,95950.31
2022-10-23T19:18:58.628Z,95937.53
2022-10-23T19:21:32.428Z,95924.53
2022-10-23T19:24:02.679Z,95935.81
2022-10-23T19:26:31.420Z,95936.22
2022-10-23T19:28:59.421Z,95938.25
2022-10-23T19:31:27.635Z,95932.94
2022-10-23T19:33:55.212Z,95929.88
2022-10-23T19:36:23.605Z,95914.22
2022-10-23T19:38:52.681Z,95914.56
2022-10-23T19:41:20.265Z,95925.09
2022-10-23T19:43:47.813Z,95930.06
2022-10-23T19:46:16.122Z,95938.16
2022-10-23T19:48:44.912Z,95948.91
2022-10-23T19:51:13.827Z,95960.25
2022-10-23T19:53:42.718Z,95961.28
2022-10-23T19:56:13.018Z,95975.78
2022-10-23T19:58:41.305Z,95977.19
2022-10-23T20:01:11.874Z,95987.63
2022-10-23T20:03:40.497Z,95992.69
2022-10-23T20:06:10.349Z,95991.97
2022-10-23T20:08:37.873Z,95985.13
2022-10-23T20:11:06.541Z,95993.66
2022-10-23T20:13:35.468Z,96000.03
2022-10-23T20:16:03.013Z,96003.66
2022-10-23T20:18:30.549Z,96007.75
2022-10-23T20:20:58.121Z,96008.47
2022-10-23T20:23:25.677Z,96033.75
2022-10-23T20:25:53.233Z,95999.34
2022-10-23T20:28:21.699Z,96039.59
2022-10-23T20:30:50.672Z,96006.00
2022-10-23T20:33:18.250Z,96029.69
2022-10-23T20:35:45.823Z,96019.00
2022-10-23T20:38:13.410Z,96035.91
2022-10-23T20:40:40.949Z,96037.84
2022-10-23T20:43:08.469Z,96036.03
2022-10-23T20:45:35.998Z,96047.47
2022-10-23T20:48:05.130Z,96050.81
2022-10-23T20:50:35.098Z,96051.22
2022-10-23T20:53:02.631Z,96054.28
2022-10-23T20:55:30.221Z,96047.91
2022-10-23T20:57:57.797Z,96053.69
2022-10-23T21:00:26.276Z,96041.94
2022-10-23T21:02:54.014Z,96055.53
2022-10-23T21:05:23.133Z,96052.19
2022-10-23T21:07:50.660Z,96044.38
2022-10-23T21:10:18.291Z,96035.91
2022-10-23T21:12:46.116Z,96046.09
2022-10-23T21:15:13.840Z,96060.97
2022-10-23T21:17:41.726Z,96063.22
2022-10-23T21:20:09.939Z,96055.38
2022-10-23T21:22:38.787Z,96096.59
2022-10-23T21:25:07.352Z,96062.06
2022-10-23T21:27:34.891Z,96057.38
2022-10-23T21:30:02.456Z,96075.25
2022-10-23T21:32:29.963Z,96063.78
2022-10-23T21:34:57.489Z,96065.97
2022-10-23T21:37:25.855Z,96068.78
2022-10-23T21:39:54.724Z,96077.25
2022-10-23T21:42:22.268Z,96082.94
2022-10-23T21:44:49.836Z,96100.91
2022-10-23T21:47:17.355Z,96102.34
2022-10-23T21:49:45.015Z,96095.78
2022-10-23T21:52:15.013Z,96089.34
2022-10-23T21:54:45.144Z,96102.53
2022-10-23T21:57:15.604Z,96116.59
2022-10-23T21:59:43.286Z,96123.97
2022-10-23T22:02:11.273Z,96128.72
2022-10-23T22:04:39.367Z,96129.84
2022-10-23T22:07:10.723Z,96132.22
2022-10-23T22:09:38.247Z,96131.88
2022-10-23T22:12:06.054Z,96124.75
2022-10-23T22:14:37.421Z,96118.78
2022-10-23T22:17:04.964Z,96112.56
2022-10-23T22:19:32.653Z,96118.53
2022-10-23T22:22:00.195Z,96121.25
2022-10-23T22:24:27.885Z,96130.94
2022-10-23T22:26:57.154Z,96135.00
2022-10-23T22:29:27.014Z,96132.44
2022-10-23T22:31:56.503Z,96122.31
2022-10-23T22:34:47.821Z,96125.22
2022-10-23T22:37:14.020Z,96130.56
2022-10-23T22:39:41.712Z,96142.53
2022-10-23T22:42:09.765Z,96138.84
2022-10-23T22:44:37.288Z,96150.81
2022-10-23T22:47:06.237Z,96145.47
2022-10-23T22:49:33.948Z,96142.78
2022-10-23T22:52:01.485Z,96142.50
2022-10-23T22:54:30.447Z,96148.03
2022-10-23T22:56:58.084Z,96170.06
2022-10-23T22:59:25.603Z,96170.06
2022-10-23T23:01:53.412Z,96169.78
2022-10-23T23:04:39.022Z,96170.97
2022-10-23T23:07:06.980Z,96183.59
2022-10-23T23:09:37.031Z,96184.63
2022-10-23T23:12:04.787Z,96201.78
2022-10-23T23:14:32.326Z,96200.88
2022-10-23T23:17:00.244Z,96204.50
2022-10-23T23:19:29.101Z,96201.56
2022-10-23T23:21:57.213Z,96211.53
2022-10-23T23:24:24.784Z,96225.47
2022-10-23T23:26:52.444Z,96236.81
2022-10-23T23:29:20.276Z,96224.25
2022-10-23T23:31:47.825Z,96217.56
2022-10-23T23:34:15.425Z,96209.47
2022-10-23T23:36:44.309Z,96207.56
2022-10-23T23:39:11.983Z,96217.22
2022-10-23T23:41:39.532Z,96223.09
2022-10-23T23:44:08.310Z,96226.25
2022-10-23T23:46:35.914Z,96224.81
2022-10-23T23:49:03.512Z,96218.31
2022-10-23T23:51:31.053Z,96223.22
2022-10-23T23:54:00.111Z,96227.09
2022-10-23T23:56:28.048Z,96242.19
2022-10-23T23:58:55.611Z,96243.38
